Date,TemperatureHighF,TemperatureAvgF,TemperatureLowF,DewpointHighF,DewpointAvgF,DewpointLowF,HumidityHigh,HumidityAvg,HumidityLow,PressureMaxIn,PressureMinIn,WindSpeedMaxMPH,WindSpeedAvgMPH,GustSpeedMaxMPH,PrecipitationSumIn
2013-1-22,13.7,13.4,13.1,3.3,3.0,2.5,63,63,62,30.23,30.21,6,3,6,0.00
2013-1-23,29.9,17.9,6.1,15.6,7.1,-4.0,70,62,54,30.36,30.02,12,3,12,0.00
2013-1-24,19.4,10.7,2.3,8.2,-1.7,-6.8,67,57,40,30.53,30.14,10,3,10,0.00
2013-1-25,32.7,22.5,11.3,20.8,11.2,2.8,68,61,52,30.18,29.92,17,4,17,0.00
2013-1-26,29.8,18.4,6.1,14.6,7.5,-0.4,75,63,46,30.29,30.14,10,1,10,0.00
2013-1-27,37.0,30.9,27.3,33.7,24.0,14.1,88,76,57,30.14,29.68,10,3,10,0.23
2013-1-28,43.1,36.8,33.1,43.1,33.9,29.3,100,90,85,29.85,29.57,8,2,8,0.04
2013-1-29,57.3,43.4,33.0,55.8,41.6,31.5,100,94,88,29.58,29.39,23,2,23,0.47
2013-1-30,33.2,24.9,14.1,31.8,23.2,12.0,98,93,85,29.68,29.28,8,2,8,0.00
2013-1-31,15.7,7.1,-1.2,13.7,3.2,-5.2,94,84,73,30.19,29.68,13,3,13,0.00
2013-2-1,16.4,3.7,-5.9,14.3,-0.7,-9.6,91,82,68,30.27,29.96,12,2,12,0.00
2013-2-2,24.5,18.8,14.1,21.7,14.9,10.3,92,85,67,30.05,29.88,10,2,10,0.00
2013-2-3,24.3,20.3,15.5,20.9,16.6,11.5,95,86,75,30.03,29.78,14,3,14,0.01
2013-2-4,25.8,21.7,14.4,22.4,18.5,11.7,95,88,80,29.89,29.69,8,2,8,0.00
2013-2-5,39.5,27.9,15.3,33.9,24.8,13.2,95,88,78,30.01,29.70,14,2,14,0.03
2013-2-6,42.0,30.4,16.1,36.3,27.3,14.8,95,89,75,30.06,29.88,9,2,9,0.00
2013-2-7,37.5,34.8,29.9,35.4,32.9,28.0,95,92,90,30.02,29.80,6,1,6,0.32
2013-2-8,31.7,29.1,27.6,28.5,27.0,25.3,95,92,86,30.25,30.02,8,2,8,0.00
2013-2-9,33.5,29.3,26.7,30.9,27.3,24.7,94,92,89,30.21,29.87,12,3,12,0.00
2013-2-10,46.3,37.5,29.9,44.5,35.5,28.2,97,93,79,29.87,29.24,31,6,31,0.43
2013-2-11,33.9,30.2,26.3,30.7,25.7,22.3,88,83,76,29.99,29.41,32,9,32,0.00
2013-2-12,38.4,30.4,24.3,29.9,25.1,20.1,90,81,69,30.01,29.77,15,3,15,0.00
2013-2-13,44.1,35.5,26.5,35.5,30.8,24.3,94,83,69,29.77,29.56,13,3,13,0.00
2013-2-14,42.7,35.9,24.3,34.2,31.1,17.0,92,83,64,30.00,29.56,21,4,21,0.00
2013-2-15,29.2,22.9,16.4,20.0,15.6,10.0,83,73,57,30.16,30.00,9,2,9,0.00
2013-2-16,26.0,18.9,12.5,17.9,13.6,8.3,89,80,69,30.16,30.04,7,1,7,0.00
2013-2-17,37.3,25.9,13.5,26.9,20.3,11.1,92,80,64,30.04,29.67,13,3,13,0.00
2013-2-18,48.8,33.0,15.7,39.1,28.6,10.1,92,84,67,29.70,29.45,15,4,15,0.01
2013-2-19,20.7,12.6,5.1,10.9,5.8,-0.3,86,74,63,30.21,29.70,17,4,17,0.02
2013-2-20,26.0,14.6,3.3,15.8,7.9,-1.4,88,75,56,30.31,30.21,8,1,8,0.00
2013-2-21,25.6,20.9,13.4,23.7,18.1,10.7,95,89,81,30.25,29.80,16,5,16,0.00
2013-2-22,33.9,26.6,23.1,31.6,24.3,20.6,95,91,83,29.84,29.67,13,5,13,0.07
2013-2-23,30.8,23.5,15.2,23.2,19.5,12.7,92,85,73,29.89,29.82,12,4,12,0.01
2013-2-24,35.0,21.6,8.0,28.0,18.3,6.2,95,87,74,30.01,29.88,6,1,6,0.02
2013-2-25,41.1,30.6,20.7,34.2,27.3,19.1,95,88,74,30.02,29.82,8,2,8,0.00
2013-2-26,35.5,32.2,30.1,31.0,29.5,28.2,95,90,83,29.82,29.54,10,4,10,0.00
2013-2-27,36.6,32.2,29.4,33.7,30.1,27.7,95,92,87,29.78,29.60,5,2,5,0.11
2013-2-28,40.2,32.2,27.2,32.9,29.0,25.2,94,88,74,30.02,29.78,5,2,5,0.03
2013-3-1,32.1,27.0,20.9,25.2,22.2,17.0,94,82,67,30.17,30.01,6,2,6,0.03
2013-3-2,30.5,20.4,9.9,19.8,14.6,7.8,91,79,58,30.18,30.08,4,1,4,0.00
2013-3-3,32.4,21.6,8.5,21.9,15.4,6.1,91,78,54,30.08,29.92,8,2,8,0.00
2013-3-4,32.1,27.2,22.7,28.3,24.2,19.2,94,89,79,29.95,29.79,17,7,17,0.01
2013-3-5,38.2,30.7,26.0,33.1,27.4,23.8,94,88,75,30.10,29.81,5,1,5,0.20
2013-3-6,33.5,24.9,15.3,25.4,20.7,12.5,94,84,68,30.26,30.09,6,1,6,0.02
2013-3-7,31.2,19.5,4.2,24.8,16.5,2.1,94,88,75,30.30,30.23,8,1,8,0.03
2013-3-8,42.0,30.8,17.1,34.6,27.4,15.8,95,88,74,30.27,30.07,11,3,11,0.01
2013-3-9,38.4,36.5,33.7,37.0,34.6,31.7,96,93,92,30.07,29.63,11,3,11,1.46
2013-3-10,39.8,37.1,34.4,38.9,36.0,33.0,98,96,95,29.64,29.46,7,1,7,0.71
2013-3-11,34.6,32.2,27.6,33.2,30.2,24.8,95,93,88,29.80,29.53,13,2,13,0.01
2013-3-12,36.4,28.5,23.6,32.3,24.7,19.9,94,86,65,30.06,29.79,19,4,19,0.01
2013-3-13,30.1,24.5,21.5,20.9,19.0,17.1,89,80,68,30.26,30.04,6,1,6,0.00
2013-3-14,46.5,33.8,23.3,36.8,28.5,18.7,90,81,66,30.23,29.96,11,1,11,0.00
2013-3-15,42.5,35.7,29.4,39.5,33.2,27.4,92,91,86,29.96,29.65,9,2,9,0.00
2013-3-16,35.0,32.4,27.2,32.2,29.7,23.8,94,90,85,30.08,29.67,6,2,6,0.00
2013-3-17,35.3,29.3,23.8,29.7,24.9,18.3,91,84,69,30.09,29.81,15,6,15,0.00
2013-3-18,35.9,28.2,17.9,33.7,24.9,12.6,94,87,77,29.82,29.58,22,5,22,0.09
2013-3-19,31.2,22.5,13.0,21.5,15.4,8.9,86,74,51,30.07,29.79,18,5,18,0.02
2013-3-20,26.5,20.0,12.1,15.7,11.3,6.3,81,69,50,30.12,30.01,17,2,17,0.01
2013-3-21,22.9,17.1,12.8,17.9,12.2,8.4,85,81,78,30.02,29.95,2,1,3,0.00
2013-3-22,40.4,29.3,17.1,27.1,21.3,13.5,88,73,50,29.98,29.91,5,1,5,0.00
2013-3-23,47.4,34.8,25.1,37.1,27.1,22.4,92,75,54,30.02,29.91,8,1,8,0.00
2013-3-24,33.7,30.4,28.5,31.2,28.3,26.5,94,92,90,29.95,29.72,8,3,8,0.04
2013-3-25,37.7,32.0,27.9,30.6,27.6,24.0,94,84,70,30.09,29.79,7,2,7,0.03
2013-3-26,42.0,34.4,25.6,33.2,28.3,23.2,92,79,61,30.20,30.08,9,1,9,0.00
2013-3-27,52.6,37.3,27.2,41.4,28.6,24.6,91,72,54,30.25,30.18,6,1,6,0.00
2013-3-28,49.4,39.5,26.9,38.5,31.9,23.9,89,75,57,30.26,30.15,7,1,7,0.00
2013-3-29,55.1,44.2,31.5,42.3,35.6,28.3,89,72,51,30.21,30.07,7,1,7,0.00
2013-3-30,52.2,44.5,36.9,47.6,40.4,32.1,94,86,78,30.08,29.78,14,3,14,0.02
2013-3-31,53.5,41.2,32.3,42.8,34.9,25.5,95,79,53,29.93,29.75,13,2,13,0.00
2013-4-1,39.8,32.7,25.1,27.9,23.1,20.3,89,68,51,30.15,29.93,8,2,8,0.00
2013-4-2,46.7,34.3,23.4,33.4,23.5,20.0,89,66,43,30.24,30.15,14,2,14,0.00
2013-4-3,47.7,36.0,21.8,28.8,22.6,18.5,89,61,37,30.34,30.17,10,1,10,0.00
2013-4-4,61.6,45.7,30.3,44.2,32.1,20.8,85,60,43,30.17,29.92,17,3,17,0.00
2013-4-5,54.6,44.5,31.7,37.9,32.4,28.5,88,65,41,30.12,29.88,10,3,10,0.00
2013-4-6,64.7,50.9,38.9,53.2,41.3,29.7,88,70,52,29.88,29.49,20,4,20,0.08
2013-4-7,61.8,49.7,36.6,47.6,42.3,34.0,90,77,57,29.88,29.66,8,2,9,0.00
2013-4-8,72.6,58.3,44.9,58.5,50.7,42.2,90,77,54,29.77,29.54,15,3,15,0.64
2013-4-9,56.4,48.7,41.8,53.3,45.9,39.6,95,90,86,29.80,29.66,15,4,15,1.09
2013-4-10,41.8,38.2,35.7,40.0,36.1,33.7,95,92,90,29.94,29.59,16,4,16,1.36
2013-4-11,38.7,37.6,36.2,36.9,35.5,33.7,94,92,91,29.64,29.51,14,7,14,0.27
2013-4-12,41.4,37.8,35.1,37.2,34.0,31.6,92,86,76,29.80,29.48,15,4,15,0.00
2013-4-13,49.7,40.3,32.3,38.5,33.8,28.8,92,78,61,29.90,29.80,16,4,16,0.01
2013-4-14,72.8,52.2,38.0,57.4,45.1,34.8,90,79,47,29.83,29.39,19,5,19,0.69
2013-4-15,60.3,47.3,40.9,50.1,41.3,33.7,89,80,59,29.94,29.52,15,2,15,0.05
2013-4-16,53.1,43.7,33.0,41.0,36.5,30.0,89,76,56,30.13,29.91,5,1,5,0.00
2013-4-17,47.0,43.4,39.5,45.2,40.3,36.5,96,89,75,30.15,29.65,18,5,18,2.85
2013-4-18,57.1,45.7,35.1,56.2,43.9,32.8,98,93,89,29.66,29.31,22,7,22,0.99
2013-4-19,39.3,35.4,32.1,33.0,30.9,28.5,91,84,69,29.92,29.47,21,7,21,0.00
2013-4-20,48.8,39.7,27.9,38.6,29.8,25.9,92,69,44,30.24,29.92,9,2,9,0.00
2013-4-21,60.9,48.4,37.3,47.9,39.8,30.4,85,72,61,30.26,30.07,15,4,15,0.00
2013-4-22,66.8,56.2,48.1,50.5,46.1,42.8,87,70,47,30.11,29.87,19,3,19,0.01
2013-4-23,52.4,41.1,36.6,48.6,36.4,31.3,90,83,75,29.97,29.87,11,3,11,0.00
2013-4-24,53.9,44.3,30.8,40.6,31.9,27.6,90,64,41,30.03,29.94,24,4,24,0.04
2013-4-25,55.7,46.4,33.3,39.9,31.7,23.3,89,60,31,30.18,29.97,15,3,15,0.00
2013-4-26,68.3,56.4,42.7,52.5,44.7,32.5,86,66,50,30.14,30.06,22,4,22,0.00
2013-4-27,67.7,59.0,46.3,55.6,49.3,42.6,88,71,56,30.13,29.89,9,1,9,0.00
2013-4-28,72.6,61.4,44.7,55.4,49.6,41.0,88,67,45,29.90,29.71,9,1,9,0.00
2013-4-29,79.1,66.5,51.9,64.4,57.8,47.6,87,74,57,29.76,29.55,14,2,14,0.00
2013-4-30,87.7,75.3,62.9,60.8,56.4,50.1,85,56,31,29.79,29.55,20,5,20,0.00
2013-5-1,78.3,62.5,45.2,58.9,51.5,40.9,85,69,48,30.12,29.79,8,3,8,0.00
2013-5-2,45.2,39.6,35.0,40.9,36.3,32.5,91,88,83,30.22,30.09,8,4,8,0.32
2013-5-3,42.5,37.3,33.9,40.7,35.1,31.6,94,92,90,30.16,29.83,7,3,7,1.23
2013-5-4,67.4,56.2,42.5,61.5,52.9,40.7,97,89,77,29.95,29.80,8,2,8,0.32
2013-5-5,74.0,63.4,51.9,62.9,54.3,48.8,91,74,48,29.97,29.89,5,1,5,0.01
2013-5-6,77.6,65.7,51.7,61.8,51.9,47.6,87,63,40,29.98,29.90,6,1,6,0.00
2013-5-7,79.1,67.5,52.1,59.5,51.0,45.4,85,58,36,29.97,29.90,5,0,5,0.00
2013-5-8,80.9,67.2,53.1,60.7,55.0,47.9,85,67,42,29.95,29.87,12,1,12,0.09
2013-5-9,68.6,62.7,59.1,63.5,58.2,54.5,86,85,83,29.87,29.72,7,1,7,0.19
2013-5-10,61.2,54.4,49.2,55.0,50.1,45.8,89,86,78,29.91,29.75,6,2,6,0.01
2013-5-11,63.9,53.3,43.1,49.2,38.6,25.9,88,60,39,30.05,29.82,8,2,8,0.00
2013-5-12,59.6,50.1,36.6,38.4,32.4,29.8,78,53,35,30.12,30.01,11,1,11,0.00
2013-5-13,71.0,58.0,36.4,48.2,40.6,31.0,85,55,33,30.08,29.79,10,2,10,0.00
2013-5-14,92.9,77.2,56.4,68.8,59.1,47.2,84,55,34,29.79,29.52,18,4,18,0.02
2013-5-15,80.0,73.0,65.4,57.9,53.6,50.5,59,51,41,29.80,29.58,12,2,13,0.01
2013-5-16,83.6,72.3,56.9,59.6,53.7,49.0,78,54,33,29.85,29.75,8,1,9,0.00
2013-5-17,81.9,72.4,62.7,68.5,62.0,55.6,85,70,54,29.90,29.79,12,2,12,0.00
2013-5-18,84.1,72.6,59.8,70.6,63.8,55.2,86,74,57,29.92,29.77,12,2,12,0.00
2013-5-19,83.2,73.5,64.8,74.4,66.8,60.2,88,80,61,29.79,29.50,21,3,21,0.13
2013-5-20,78.3,74.0,68.6,67.2,64.3,61.1,79,72,64,29.59,29.51,12,4,12,0.00
2013-5-21,74.9,67.9,61.1,63.9,59.5,55.6,86,75,57,29.61,29.51,13,3,13,0.00
2013-5-22,75.5,62.0,56.4,62.4,56.1,52.7,89,81,59,29.69,29.56,10,2,10,0.11
2013-5-23,68.8,59.7,52.4,57.4,51.7,44.9,89,76,54,30.17,29.69,5,2,5,0.03
2013-5-24,68.3,58.1,43.8,48.6,43.4,39.8,88,60,39,30.32,30.13,12,2,12,0.00
2013-5-25,58.4,51.5,47.6,49.4,47.3,44.2,89,86,64,30.24,30.11,9,2,9,1.06
2013-5-26,57.5,51.9,48.6,54.0,48.7,45.2,95,89,87,30.14,29.91,18,4,18,0.98
2013-5-27,69.0,60.9,55.3,63.5,57.7,52.4,96,90,83,29.93,29.68,7,3,9,0.08
2013-5-28,76.4,66.7,60.9,69.6,62.4,58.1,94,86,79,29.71,29.57,8,2,12,0.64
2013-5-29,83.4,72.4,62.7,74.8,65.4,57.3,83,79,73,29.78,29.64,10,4,13,0.00
2013-5-30,78.3,70.5,62.5,70.5,63.8,57.5,84,79,72,29.70,29.53,14,5,17,0.37
2013-5-31,76.0,68.5,61.4,66.7,61.7,56.6,86,79,67,29.66,29.57,17,5,17,0.00
2013-6-1,74.4,67.8,62.7,66.3,60.4,56.8,88,77,61,29.73,29.54,9,3,9,0.00
2013-6-2,65.2,58.7,52.4,56.8,51.1,46.2,84,76,64,29.95,29.73,4,1,6,0.00
2013-6-3,79.8,62.7,46.7,61.8,50.1,42.3,85,65,46,30.00,29.89,7,1,8,0.00
2013-6-4,64.8,60.4,54.9,57.8,53.4,49.0,80,77,68,30.07,29.92,7,1,8,0.02
2013-6-5,68.6,61.7,56.7,62.7,56.5,52.0,87,83,80,29.95,29.81,5,1,6,0.00
2013-6-6,71.3,62.3,57.3,63.8,57.2,53.4,88,84,74,29.86,29.78,4,0,5,0.00
2013-6-7,69.3,61.9,54.8,61.9,56.3,50.6,87,82,73,29.90,29.82,2,0,3,0.00
2013-6-8,78.3,68.1,55.1,66.0,57.9,50.4,85,70,54,29.86,29.79,8,1,9,0.00
2013-6-9,68.3,65.2,60.7,62.1,59.0,55.6,84,80,74,29.79,29.66,8,2,10,0.27
2013-6-10,76.5,66.7,57.6,68.1,61.0,53.4,91,82,73,29.79,29.67,4,0,4,0.01
2013-6-11,85.4,73.1,59.6,73.6,65.2,54.3,85,76,64,29.83,29.70,7,1,8,0.00
2013-6-12,88.4,78.1,68.8,77.4,69.6,62.3,81,75,67,29.80,29.52,9,3,14,0.05
2013-6-13,83.7,73.6,62.1,71.8,63.5,56.4,84,71,55,29.94,29.64,3,1,5,0.01
2013-6-14,78.2,69.3,60.3,65.1,60.4,54.3,81,73,61,30.02,29.80,8,2,10,0.00
2013-6-15,80.9,72.6,64.5,71.9,65.7,59.4,87,79,70,29.93,29.74,10,3,14,0.11
2013-6-16,85.9,75.6,66.3,73.5,61.9,54.2,81,64,40,29.86,29.81,5,1,7,0.00
2013-6-17,90.0,77.7,61.8,68.3,61.0,54.4,80,58,42,29.87,29.77,4,1,5,0.00
2013-6-18,79.1,71.5,61.4,65.1,60.6,55.3,81,69,56,29.95,29.82,5,1,8,0.00
2013-6-19,83.4,72.7,57.3,65.7,59.3,51.2,80,64,48,30.02,29.92,8,2,10,0.00
2013-6-20,89.7,78.8,62.9,70.7,65.2,56.7,80,64,48,30.00,29.89,16,3,16,0.00
2013-6-21,82.1,75.5,64.8,73.5,68.1,60.0,90,78,72,30.03,29.80,11,4,13,1.42
2013-6-22,90.2,80.5,68.8,79.3,72.1,62.6,81,75,68,29.93,29.77,15,4,15,0.13
2013-6-23,85.9,77.2,69.7,74.6,68.1,63.1,80,73,57,29.92,29.75,12,3,12,0.00
2013-6-24,73.3,68.8,66.6,67.7,63.6,61.3,90,84,78,29.95,29.77,10,2,10,1.64
2013-6-25,86.6,76.6,67.0,78.0,70.2,61.9,90,81,74,29.80,29.66,15,3,15,0.12
2013-6-26,85.9,75.9,66.5,77.6,69.2,61.3,87,80,75,29.71,29.61,9,2,9,1.30
2013-6-27,96.5,79.6,68.4,77.9,69.3,62.1,80,71,53,29.79,29.71,9,1,9,0.00
2013-6-28,89.1,75.9,67.5,70.0,64.5,60.3,79,68,52,29.75,29.62,7,1,7,0.00
2013-6-29,75.5,67.8,63.8,68.1,61.4,58.0,83,80,76,29.77,29.60,5,1,5,0.24
2013-6-30,77.3,69.1,60.0,66.3,60.2,54.1,81,73,57,29.96,29.77,5,2,5,0.00
2013-7-1,87.0,70.0,57.5,68.2,57.9,51.9,81,66,50,30.02,29.96,6,1,6,0.00
2013-7-2,81.9,71.5,59.3,67.1,60.3,53.3,81,68,51,30.02,29.92,7,1,7,0.00
2013-7-3,81.4,69.9,56.6,64.6,57.6,51.0,81,66,46,29.99,29.90,5,1,5,0.00
2013-7-4,85.5,74.3,58.5,71.6,61.7,52.7,81,66,50,29.96,29.88,9,1,9,0.00
2013-7-5,86.3,76.3,62.0,71.3,64.6,55.7,81,68,52,29.94,29.85,14,3,14,0.00
2013-7-6,89.0,78.6,63.8,73.7,67.8,58.0,81,70,55,29.91,29.81,10,3,10,0.00
2013-7-7,89.7,80.4,66.8,76.2,70.4,60.6,80,71,61,29.86,29.78,14,4,14,0.05
2013-7-8,91.7,83.3,74.7,78.7,73.5,67.5,78,72,61,29.86,29.78,8,2,8,0.02
2013-7-9,87.3,79.0,72.0,78.5,71.9,66.1,85,79,74,29.87,29.74,13,2,13,1.19
2013-7-10,88.2,76.5,66.6,75.7,66.6,59.6,80,71,61,29.91,29.75,3,1,4,0.00
2013-7-11,69.7,65.5,62.0,62.1,59.0,55.7,81,79,76,29.95,29.90,2,0,2,0.00
2013-7-12,83.4,73.4,59.1,68.8,60.9,53.8,84,66,45,30.00,29.90,12,2,12,0.00
2013-7-13,77.8,69.3,62.1,69.2,63.1,57.1,84,81,72,29.99,29.91,5,1,5,0.00
2013-7-14,85.9,76.5,62.9,73.3,66.9,58.2,86,73,55,30.04,29.96,9,1,9,0.00
2013-7-15,89.5,80.3,68.6,78.9,72.8,63.8,86,78,66,30.10,30.02,9,1,9,0.00
2013-7-16,95.6,84.0,72.4,82.1,75.2,67.9,86,75,61,30.12,30.06,9,2,9,0.00
2013-7-17,99.2,85.7,73.5,82.9,75.7,68.8,86,73,55,30.14,30.00,7,1,7,0.00
2013-7-18,98.7,85.6,73.5,82.6,74.4,68.6,86,70,54,30.00,29.75,6,2,8,0.00
2013-7-19,92.6,80.3,73.3,78.9,70.8,66.6,79,73,56,29.84,29.73,5,2,8,0.00
2013-7-20,87.5,76.5,64.1,73.0,67.0,59.8,87,73,53,29.88,29.80,4,1,5,0.00
2013-7-21,78.0,67.9,65.0,71.2,63.2,61.0,87,85,79,29.85,29.80,2,0,3,0.00
2013-7-22,89.9,74.3,62.1,79.0,67.9,58.1,88,81,64,29.81,29.65,9,2,11,0.39
2013-7-23,83.4,71.3,61.4,70.7,62.7,57.0,87,75,59,29.92,29.70,3,1,4,0.00
2013-7-24,80.0,68.4,56.6,65.5,60.0,52.7,88,75,58,30.00,29.91,4,1,4,0.00
2013-7-25,86.6,73.6,59.3,70.2,63.8,55.4,88,73,53,30.00,29.90,9,2,11,1.17
2013-7-26,81.6,69.2,61.8,72.2,62.8,56.8,91,81,62,29.99,29.85,9,2,9,0.43
2013-7-27,74.9,61.8,53.1,59.2,53.7,49.5,88,75,55,29.95,29.87,4,1,8,0.00
2013-7-28,75.8,64.1,54.4,60.3,55.0,50.2,87,73,53,29.98,29.83,4,1,5,0.00
2013-7-29,78.5,67.1,51.7,64.4,57.4,48.2,88,72,54,30.07,29.98,5,1,8,0.00
2013-7-30,66.8,65.1,63.4,62.4,60.5,58.0,88,85,83,30.04,29.96,5,1,6,0.01
2013-7-31,80.9,71.3,64.3,71.9,65.5,60.7,89,82,68,30.00,29.91,3,0,4,0.00
2013-8-1,82.7,70.5,61.1,70.1,62.7,56.5,86,77,52,29.98,29.82,4,1,5,0.00
2013-8-2,85.9,74.5,65.4,74.1,66.5,60.7,85,77,59,29.90,29.79,3,1,4,0.04
2013-8-3,85.7,70.9,58.7,70.0,60.4,54.5,87,70,54,30.08,29.91,2,0,4,0.01
2013-8-4,85.0,69.8,56.9,68.2,59.3,53.0,87,70,50,30.13,30.00,5,1,8,0.00
2013-8-5,76.5,67.8,60.7,70.8,62.9,56.1,89,85,81,29.99,29.76,9,2,12,0.55
2013-8-6,87.2,76.6,66.5,78.1,70.6,62.8,89,82,69,29.81,29.71,8,2,14,0.00
2013-8-7,86.4,74.6,64.5,77.6,67.6,60.0,86,79,66,29.91,29.70,4,1,4,0.04
2013-8-8,80.7,70.7,58.5,70.2,63.5,54.3,86,78,63,29.95,29.88,5,1,6,0.00
2013-8-9,81.6,71.9,63.9,72.2,64.9,59.2,85,79,69,30.02,29.91,4,0,5,0.00
2013-8-10,82.3,70.6,58.0,67.3,61.2,54.1,87,73,54,30.11,30.02,3,1,4,0.00
2013-8-11,83.6,73.9,63.4,71.1,65.6,59.1,86,76,62,30.05,29.91,6,2,8,0.00
2013-8-12,80.9,72.1,64.5,72.0,65.0,59.5,85,79,63,29.95,29.87,4,1,5,0.03
2013-8-13,75.1,66.5,58.2,65.9,57.9,52.8,88,75,56,30.09,29.93,4,1,6,0.00
2013-8-14,79.6,65.5,51.0,64.1,54.6,47.5,88,70,47,30.15,30.05,4,0,5,0.00
2013-8-15,64.1,59.4,57.8,57.2,54.8,53.8,87,85,77,30.07,30.05,1,0,2,0.00
2013-8-16,79.4,68.4,54.2,66.1,58.7,50.4,88,72,48,30.12,30.06,5,0,6,0.00
2013-8-17,82.1,70.1,57.3,67.9,60.2,53.4,87,72,53,30.14,30.06,5,1,8,0.00
2013-8-18,80.9,70.5,56.2,67.2,60.9,52.3,87,73,51,30.12,30.00,6,1,10,0.00
2013-8-19,83.2,72.5,59.6,70.7,64.3,55.3,87,76,57,30.02,29.93,0,0,0,0.00
2013-8-20,87.2,75.8,62.1,73.1,67.1,57.8,86,75,58,29.98,29.89,11,2,12,0.00
2013-8-21,90.6,79.0,69.3,75.4,70.6,64.5,85,76,58,29.95,29.87,0,0,0,0.00
2013-8-22,78.3,73.6,67.7,71.8,68.3,63.0,86,84,78,30.04,29.92,0,0,0,0.02
2013-8-23,82.3,71.9,61.1,72.8,65.5,57.8,90,81,68,30.08,30.00,0,0,0,0.01
2013-8-24,88.4,75.9,63.2,77.6,69.1,58.9,87,80,68,30.12,30.02,0,0,0,0.00
2013-8-25,91.1,81.0,70.1,76.4,70.7,65.0,86,72,52,30.12,30.01,0,0,0,0.00
2013-8-26,81.0,74.5,70.4,72.4,67.7,64.9,84,79,74,30.04,29.89,0,0,0,0.00
2013-8-27,95.6,85.8,73.7,76.6,73.5,68.5,85,68,52,29.90,29.78,0,0,0,0.00
2013-8-28,92.4,83.7,75.1,82.4,75.6,69.5,84,77,59,29.94,29.82,0,0,0,0.00
2013-8-29,91.3,81.7,71.9,79.1,74.0,67.0,86,78,62,29.97,29.86,0,0,0,0.00
2013-8-30,98.1,85.5,72.4,81.3,74.3,67.9,87,71,45,29.87,29.69,0,0,0,0.00
2013-8-31,84.1,76.4,70.6,75.0,70.1,65.3,85,81,74,29.78,29.69,0,0,0,0.00
2013-9-1,87.5,75.2,65.7,75.7,66.8,60.3,88,76,57,29.84,29.70,0,0,0,0.00
2013-9-2,79.8,66.8,55.3,66.7,58.2,51.5,87,75,58,29.96,29.83,0,0,0,0.00
2013-9-3,78.0,65.1,50.4,61.8,55.4,47.0,88,72,50,30.03,29.94,0,0,0,0.00
2013-9-4,86.6,72.4,53.5,70.4,62.0,49.3,87,71,51,30.06,29.97,0,0,0,0.00
2013-9-5,85.5,75.7,64.7,73.8,68.0,60.0,85,78,65,30.11,30.03,0,0,0,0.00
2013-9-6,88.4,75.1,59.8,69.5,63.7,55.5,86,69,47,30.09,29.89,0,0,0,0.00
2013-9-7,94.0,79.0,67.4,76.1,69.2,61.8,84,73,53,29.90,29.78,0,0,0,0.00
2013-9-8,80.7,74.4,71.0,73.2,68.8,65.5,86,83,77,29.92,29.80,0,0,0,0.00
2013-9-9,98.7,82.2,67.4,77.4,69.1,63.4,88,67,40,29.82,29.71,0,0,0,0.00
2013-9-10,97.1,87.1,75.5,69.3,67.2,64.7,69,53,36,29.91,29.79,0,0,0,0.00
2013-9-11,86.6,74.2,68.3,72.1,66.6,63.2,85,77,58,30.01,29.91,0,0,0,0.01
2013-9-12,79.1,69.7,58.5,64.9,56.6,50.2,86,65,43,30.07,29.95,0,0,0,0.00
2013-9-13,70.1,60.1,48.5,54.1,47.9,44.2,88,66,44,30.16,30.03,0,0,0,0.00
2013-9-14,74.4,61.7,43.4,52.9,46.8,39.1,86,60,39,30.08,29.87,0,0,0,0.00
2013-9-15,64.1,59.0,54.6,59.9,54.2,50.0,89,85,64,30.13,29.84,0,0,0,0.50
2013-9-16,66.8,57.9,52.1,58.7,52.2,47.8,89,82,65,30.29,30.13,0,0,0,0.00
2013-9-17,66.6,58.3,47.7,61.0,53.9,44.3,90,85,79,30.21,29.95,0,0,0,0.00
2013-9-18,85.5,71.4,61.6,75.8,65.5,57.3,90,82,67,29.95,29.73,0,0,0,0.26
2013-9-19,89.3,75.9,65.9,74.6,68.8,61.9,88,79,57,29.77,29.63,0,0,0,1.10
2013-9-20,66.6,62.6,55.3,63.1,57.7,51.5,90,84,74,29.84,29.73,0,0,0,0.14
2013-9-21,67.7,58.6,47.9,57.0,51.5,44.8,89,78,61,29.90,29.82,0,0,0,0.00
2013-9-22,72.4,60.2,47.0,57.7,51.6,43.6,89,74,57,29.95,29.85,0,0,0,0.00
2013-9-23,73.5,60.5,47.6,57.7,51.7,44.2,89,74,52,29.96,29.84,0,0,0,0.00
2013-9-24,74.0,61.0,49.4,59.7,53.1,46.0,89,76,53,29.89,29.80,0,0,0,0.00
2013-9-25,75.1,63.1,50.4,59.7,54.4,47.0,88,74,55,29.89,29.80,0,0,0,0.00
2013-9-26,82.7,67.4,52.6,66.5,58.6,48.8,88,74,54,29.92,29.84,0,0,0,0.00
2013-9-27,83.0,69.7,55.8,67.7,59.8,51.9,87,72,53,29.98,29.87,0,0,0,0.00
2013-9-28,73.1,63.8,52.4,65.9,58.1,49.3,89,82,68,29.93,29.77,0,0,0,0.35
2013-9-29,71.0,59.4,46.1,59.3,50.5,43.0,90,74,48,30.00,29.88,0,0,0,0.01
2013-9-30,75.5,61.6,46.3,59.2,51.8,42.9,89,72,46,29.88,29.70,8,1,10,0.00
2013-10-1,81.8,69.2,59.6,65.2,60.0,53.0,88,74,53,29.90,29.75,13,4,14,0.00
2013-10-2,81.2,67.9,53.3,64.8,55.8,47.1,84,67,41,29.98,29.82,12,3,16,0.00
2013-10-3,79.1,70.1,61.2,71.6,64.8,56.9,88,84,74,29.82,29.71,9,2,10,0.03
2013-10-4,72.8,67.0,62.3,68.0,62.8,58.3,92,86,85,29.89,29.73,8,2,12,0.79
2013-10-5,71.1,63.2,47.6,66.7,56.7,42.3,87,80,58,29.80,29.71,10,2,16,0.00
2013-10-6,56.4,47.4,42.9,49.7,42.9,39.9,89,84,70,29.74,29.64,9,1,10,0.04
2013-10-7,72.6,57.1,45.0,54.3,48.2,41.9,90,75,42,29.97,29.73,7,1,10,0.00
2013-10-8,76.2,60.8,44.5,58.2,48.5,41.5,90,67,37,30.02,29.94,10,1,10,0.00
2013-10-9,79.8,63.2,48.8,64.3,50.9,44.1,88,65,51,30.08,29.98,9,2,12,0.00
2013-10-10,80.1,59.5,43.4,65.2,51.4,40.4,89,76,57,30.03,29.88,10,2,12,0.00
2013-10-11,74.9,64.2,52.1,64.1,56.3,48.4,88,76,62,29.89,29.73,22,4,22,0.00
2013-10-12,69.3,61.0,50.6,60.2,49.2,38.2,86,66,47,30.12,29.75,14,5,18,0.01
2013-10-13,61.2,48.7,39.3,46.2,38.5,33.3,81,69,50,30.34,30.12,4,1,6,0.00
2013-10-14,62.5,55.3,39.8,47.1,43.6,35.2,84,65,55,30.27,29.92,12,4,12,0.00
2013-10-15,59.6,51.7,49.5,55.0,45.9,43.4,88,81,67,29.89,29.72,14,9,20,0.10
2013-10-16,52.4,48.9,47.0,48.3,45.6,44.1,90,89,86,29.89,29.77,16,5,17,0.01
2013-10-17,59.8,50.6,45.2,47.7,43.3,40.2,90,77,52,29.86,29.72,13,3,13,0.00
2013-10-18,53.1,46.8,43.4,44.0,40.0,35.3,89,78,59,29.91,29.77,13,4,13,0.00
2013-10-19,53.0,44.3,38.2,42.3,37.8,33.2,90,78,58,29.85,29.68,18,5,18,0.01
2013-10-20,57.8,46.6,35.7,49.9,41.2,32.8,91,82,72,29.77,29.62,13,3,13,0.00
2013-10-21,47.4,40.5,31.9,42.7,32.1,26.8,88,73,54,29.93,29.77,12,3,12,0.00
2013-10-22,40.0,34.5,27.9,37.7,32.1,24.9,94,91,83,29.93,29.83,9,2,9,0.15
2013-10-23,44.7,36.5,29.4,37.1,32.4,27.7,94,85,63,30.00,29.91,11,3,11,0.02
2013-10-24,42.2,36.2,29.4,32.3,29.2,25.1,85,76,61,30.24,29.99,8,2,8,0.00
2013-10-25,53.5,38.7,25.6,36.1,29.3,23.4,92,72,43,30.28,29.91,17,4,17,0.00
2013-10-26,52.1,44.5,36.2,38.1,33.3,28.8,80,65,52,30.02,29.80,16,4,16,0.00
2013-10-27,56.7,41.6,26.9,37.8,31.5,23.8,90,69,46,30.01,29.80,13,2,13,0.00
2013-10-28,53.9,42.7,35.0,43.5,36.5,29.5,90,79,66,30.23,29.91,16,5,16,0.00
2013-10-29,58.4,46.1,36.6,46.1,40.0,33.3,92,80,61,30.22,29.97,13,4,13,0.00
2013-10-30,58.0,53.9,49.9,55.8,51.4,44.1,96,91,79,29.97,29.60,14,3,14,0.33
2013-10-31,61.4,50.9,42.3,59.3,49.3,40.8,96,95,92,29.60,29.32,15,4,15,0.12
2013-11-1,50.6,45.6,41.4,46.6,43.1,39.2,96,91,81,29.70,29.39,14,4,14,0.00
2013-11-2,50.3,41.8,33.0,41.3,36.4,29.0,95,82,61,30.06,29.70,12,2,12,0.00
2013-11-3,53.7,42.0,29.0,41.7,35.2,27.2,95,78,57,30.13,29.96,18,3,18,0.00
2013-11-4,52.6,49.0,45.0,48.1,43.5,37.0,90,81,72,30.05,29.90,16,6,20,0.00
2013-11-5,55.5,50.9,46.7,53.4,49.0,44.9,95,94,90,30.10,29.72,20,4,20,0.56
2013-11-6,56.9,42.3,29.7,55.0,38.2,26.4,97,86,66,30.15,29.64,15,3,15,0.09
2013-11-7,46.5,35.9,26.7,38.1,31.4,24.5,95,84,64,30.18,30.11,13,3,13,0.00
2013-11-8,48.8,38.2,24.0,40.3,31.7,22.5,96,79,57,30.18,29.70,22,5,22,0.00
2013-11-9,55.3,47.4,37.3,44.7,39.8,32.5,83,75,63,30.13,29.70,22,6,22,0.00
2013-11-10,46.5,38.8,28.7,35.9,32.4,26.5,94,78,63,30.29,30.07,9,3,12,0.00
2013-11-11,45.4,34.0,18.8,38.1,29.2,14.9,96,83,73,30.52,29.98,8,3,8,0.00
2013-11-12,28.8,19.5,12.8,19.6,14.8,10.5,94,82,66,30.67,30.49,9,1,9,0.01
2013-11-13,44.3,31.2,17.1,23.5,18.5,13.0,85,62,36,30.49,29.98,16,6,16,0.01
2013-11-14,49.9,40.8,32.8,32.8,29.0,22.4,76,63,51,29.98,29.80,16,4,16,0.00
2013-11-15,55.3,44.3,34.1,40.9,35.0,28.4,86,70,54,29.84,29.71,12,3,12,0.00
2013-11-16,61.1,51.7,38.9,58.5,49.5,35.3,95,93,85,29.71,29.31,21,8,21,0.36
2013-11-17,56.7,49.0,39.5,54.7,46.8,37.1,95,92,81,29.79,29.19,21,5,21,0.87
2013-11-18,42.5,36.5,26.7,37.1,32.2,24.5,96,85,68,30.19,29.79,17,4,17,0.00
2013-11-19,44.1,33.3,23.1,35.3,29.3,22.0,97,86,67,30.20,30.04,13,2,13,0.00
2013-11-20,39.5,37.1,36.0,36.8,34.2,31.8,97,90,81,30.04,29.89,18,4,18,0.22
2013-11-21,42.7,37.1,32.4,40.8,36.0,31.5,97,96,94,30.22,29.95,7,2,7,0.05
2013-11-22,33.0,27.3,18.0,31.5,25.1,14.4,98,92,81,30.45,30.22,11,3,11,0.05
2013-11-23,20.0,16.2,9.9,17.8,11.9,6.7,91,83,72,30.65,30.40,8,2,9,0.00
2013-11-24,27.2,21.7,6.7,15.4,11.8,4.7,92,66,52,30.63,30.18,13,6,13,0.00
2013-11-25,34.4,28.4,22.2,29.5,25.1,15.5,97,88,72,30.18,29.96,18,6,18,0.04
2013-11-26,31.2,24.8,12.8,28.2,19.2,8.5,95,80,61,30.18,29.97,11,3,11,0.01
2013-11-27,24.5,17.7,8.7,15.3,11.9,5.8,89,78,65,30.24,30.04,8,2,8,0.00
2013-11-28,30.3,22.4,14.6,23.3,17.7,10.9,89,82,73,30.39,29.98,10,2,10,0.00
2013-11-29,34.4,22.8,10.5,26.3,18.5,8.4,94,84,69,30.45,30.18,13,2,13,0.00
2013-11-30,46.7,34.6,23.4,37.1,29.9,20.8,96,84,67,30.18,29.94,11,3,11,0.01
2013-12-1,42.3,34.7,26.7,35.7,31.5,25.3,97,88,74,30.05,29.84,6,1,6,0.00
2013-12-2,42.0,36.5,31.5,38.8,34.7,29.4,96,94,88,29.85,29.54,9,2,9,0.02
2013-12-3,43.1,39.3,35.9,42.0,38.3,34.8,98,97,96,29.58,29.47,13,2,13,0.00
2013-12-4,49.2,40.2,23.8,48.9,39.6,22.0,100,98,94,29.74,29.35,22,3,22,0.05
2013-12-5,23.6,17.5,12.6,22.0,13.2,8.5,94,83,74,30.24,29.72,21,7,21,0.00
2013-12-6,15.2,10.3,6.2,8.7,5.6,2.5,87,81,72,30.50,30.22,10,1,10,0.00
2013-12-7,15.2,7.5,0.0,6.8,2.3,-3.0,90,79,63,30.62,30.45,6,1,6,0.00
2013-12-8,23.3,17.3,11.4,22.5,14.4,5.6,99,89,74,30.45,29.89,15,3,15,0.00
2013-12-9,19.3,5.9,-4.8,18.9,3.1,-7.7,99,88,74,30.14,29.88,18,6,18,0.00
2013-12-10,17.7,12.8,-4.5,14.7,8.1,-7.2,90,82,74,30.15,29.84,17,6,24,0.00
2013-12-11,17.1,6.0,-3.0,15.5,2.0,-6.5,96,84,69,30.48,30.11,10,2,10,0.00
2013-12-12,22.5,11.3,-3.9,16.5,7.3,-7.1,90,84,76,30.42,30.07,13,2,13,0.00
2013-12-13,27.2,19.3,8.5,23.4,16.9,6.7,98,91,84,30.07,29.91,15,5,15,0.00
2013-12-14,25.8,21.1,13.9,23.4,19.4,11.5,97,93,89,29.99,29.93,13,5,13,0.00
2013-12-15,17.7,12.3,7.4,13.0,8.6,4.3,94,85,76,30.02,29.96,15,2,15,0.00
2013-12-16,23.4,17.4,11.6,20.7,15.3,9.5,96,92,85,29.99,29.88,12,3,12,0.00
2013-12-17,36.0,25.6,16.1,30.2,22.1,15.0,97,87,74,30.07,29.90,20,7,20,0.05
2013-12-18,41.6,28.5,14.3,32.9,23.9,12.3,94,83,68,30.05,29.66,19,4,19,0.00
2013-12-19,36.8,30.3,24.7,33.2,28.7,23.6,97,94,84,29.79,29.68,14,4,14,0.00
2013-12-20,31.2,25.8,23.6,30.4,25.2,22.8,98,98,97,29.77,29.68,12,4,12,0.00
2013-12-21,27.6,25.8,23.6,26.8,25.0,22.8,98,97,96,29.77,29.60,11,4,11,0.00
2013-12-22,27.6,22.3,7.8,27.1,21.3,6.0,98,96,91,30.14,29.62,10,3,10,0.01
2013-12-23,7.8,0.1,-4.3,5.9,-2.7,-7.2,94,88,81,30.40,30.14,16,5,16,0.00
2013-12-24,13.9,0.3,-11.5,12.3,-2.6,-14.3,95,87,81,30.42,30.12,12,2,12,0.00
2013-12-25,25.4,21.1,14.1,24.9,20.1,12.3,98,96,91,30.13,30.02,10,3,10,0.00
2013-12-26,36.9,24.9,15.7,32.4,22.9,14.7,97,93,83,30.12,30.00,9,1,9,0.01
2013-12-27,40.5,29.8,15.2,34.0,26.6,14.0,98,89,76,30.14,29.96,12,3,12,0.07
2013-12-28,45.0,37.9,29.0,37.3,33.1,26.4,95,83,72,29.98,29.70,16,5,16,0.00
2013-12-29,35.7,14.9,-3.4,32.0,11.7,-7.6,95,87,81,30.19,29.71,12,3,13,0.00
2013-12-30,10.3,1.6,-8.1,5.9,-1.6,-11.2,92,86,78,30.20,30.07,7,1,7,0.00
2013-12-31,11.0,4.9,-4.8,7.9,2.2,-7.5,94,89,81,30.22,30.10,11,3,11,0.00
2014-1-1,12.1,9.1,5.4,9.6,6.4,3.6,94,89,84,30.19,30.12,11,7,11,0.00
2014-1-2,10.7,5.6,-4.8,6.8,2.3,-7.7,90,86,81,30.34,30.15,5,1,5,0.00